Time;durP1;ratioP1;P1;durP2;ratioP2;P2;SDS_P1;SDS_P2;PMS_P1;PMS_P2;Temp;Humidity;BMP_temperature;BMP_pressure;BME280_temperature;BME280_humidity;BME280_pressure;Samples;Min_cycle;Max_cycle;Signal;HPM_P1;HPM_P2
2021/04/25 00:00:21;;;;;;;4.60;1.83;;;20.40;28.60;;;;;;5094098;28;20032;-66
2021/04/25 00:02:46;;;;;;;3.55;1.20;;;20.40;28.60;;;;;;5093546;28;20085;-67
2021/04/25 00:05:14;;;;;;;3.28;1.15;;;20.50;28.60;;;;;;5093921;28;20028;-67
2021/04/25 00:07:40;;;;;;;4.53;1.40;;;20.40;28.60;;;;;;5093891;28;20023;-67
2021/04/25 00:10:08;;;;;;;4.70;1.55;;;20.40;28.60;;;;;;5092989;28;20471;-66
2021/04/25 00:12:33;;;;;;;4.63;1.65;;;20.50;28.60;;;;;;5093505;28;20024;-66
2021/04/25 00:14:59;;;;;;;4.03;1.40;;;20.40;28.60;;;;;;5093528;28;20035;-67
2021/04/25 00:17:25;;;;;;;4.07;1.30;;;20.40;28.70;;;;;;5093981;28;20027;-67
2021/04/25 00:19:51;;;;;;;4.53;1.63;;;20.40;28.60;;;;;;5093762;28;20058;-66
2021/04/25 00:22:16;;;;;;;3.53;1.52;;;20.40;28.70;;;;;;5093027;28;20048;-66
2021/04/25 00:24:42;;;;;;;4.15;1.55;;;20.40;28.70;;;;;;5093540;28;20039;-67
2021/04/25 00:27:07;;;;;;;4.75;1.30;;;20.40;28.70;;;;;;5093705;28;20032;-66
2021/04/25 00:29:33;;;;;;;3.05;1.15;;;20.40;28.70;;;;;;5093449;28;20021;-66
2021/04/25 00:31:58;;;;;;;4.10;1.58;;;20.40;28.70;;;;;;5093497;28;20028;-67
2021/04/25 00:34:24;;;;;;;3.72;1.52;;;20.40;28.70;;;;;;5093543;28;20384;-67
2021/04/25 00:36:49;;;;;;;3.40;1.45;;;20.40;28.70;;;;;;5094081;28;20444;-67
2021/04/25 00:39:15;;;;;;;3.55;1.25;;;20.40;28.70;;;;;;5093928;28;20024;-66
2021/04/25 00:41:41;;;;;;;6.30;2.03;;;20.30;28.70;;;;;;5093482;28;20024;-68
2021/04/25 00:44:10;;;;;;;5.53;1.70;;;20.40;28.70;;;;;;5093698;28;20032;-66
2021/04/25 00:46:37;;;;;;;5.03;1.38;;;20.40;28.70;;;;;;5093665;28;20028;-67
2021/04/25 00:49:03;;;;;;;4.13;1.55;;;20.30;28.70;;;;;;5093624;28;20020;-66
2021/04/25 00:51:28;;;;;;;3.65;1.63;;;20.30;28.70;;;;;;5093402;28;20027;-67
2021/04/25 00:53:56;;;;;;;4.60;1.50;;;20.30;28.70;;;;;;5093382;28;20307;-66
2021/04/25 00:56:22;;;;;;;2.42;1.23;;;20.30;28.70;;;;;;5093533;28;20024;-66
2021/04/25 00:58:49;;;;;;;4.45;1.40;;;20.30;28.70;;;;;;5092068;28;20024;-66
2021/04/25 01:01:15;;;;;;;3.13;1.50;;;20.30;28.80;;;;;;5093438;28;20046;-66
2021/04/25 01:03:41;;;;;;;3.42;1.48;;;20.30;28.70;;;;;;5093630;28;20496;-66
2021/04/25 01:06:07;;;;;;;2.78;1.30;;;20.30;28.80;;;;;;5093609;28;20055;-67
2021/04/25 01:08:32;;;;;;;3.45;1.45;;;20.30;28.70;;;;;;5092210;28;20089;-66
2021/04/25 01:10:58;;;;;;;3.10;1.42;;;20.30;28.80;;;;;;5092982;28;20020;-66
2021/04/25 01:13:23;;;;;;;3.85;1.60;;;20.30;28.80;;;;;;5093289;28;20036;-66
2021/04/25 01:15:49;;;;;;;3.80;1.63;;;20.30;28.80;;;;;;5093448;28;20024;-67
2021/04/25 01:18:14;;;;;;;2.72;1.40;;;20.30;28.80;;;;;;5093369;28;20032;-67
2021/04/25 01:20:40;;;;;;;3.08;1.30;;;20.30;28.80;;;;;;5093139;28;20058;-68
2021/04/25 01:23:06;;;;;;;4.50;1.40;;;20.30;28.80;;;;;;5095484;28;20127;-66
2021/04/25 01:25:31;;;;;;;7.88;1.80;;;20.30;28.80;;;;;;5097191;28;20532;-66
2021/04/25 01:27:57;;;;;;;3.80;1.70;;;20.30;28.80;;;;;;5097117;28;20051;-67
2021/04/25 01:30:29;;;;;;;3.75;1.45;;;20.30;28.80;;;;;;5097059;28;20497;-67
2021/04/25 01:32:55;;;;;;;3.83;1.40;;;20.30;28.80;;;;;;5096979;28;20620;-67
2021/04/25 01:35:23;;;;;;;3.15;1.45;;;20.20;28.80;;;;;;5096925;28;20468;-67
2021/04/25 01:37:50;;;;;;;4.10;1.52;;;20.20;28.80;;;;;;5096965;28;20020;-67
2021/04/25 01:40:16;;;;;;;5.03;1.50;;;20.20;28.80;;;;;;5097294;28;20032;-66
2021/04/25 01:42:42;;;;;;;3.00;1.30;;;20.20;28.80;;;;;;5096498;28;20032;-67
2021/04/25 01:45:15;;;;;;;5.13;1.92;;;20.20;28.80;;;;;;5097092;28;20019;-67
2021/04/25 01:47:42;;;;;;;3.45;1.60;;;20.20;28.90;;;;;;5096995;28;20084;-67
2021/04/25 01:50:07;;;;;;;4.50;1.50;;;20.20;28.80;;;;;;5096360;28;20026;-67
2021/04/25 01:52:33;;;;;;;3.75;1.52;;;20.20;28.90;;;;;;5096528;28;20095;-66
2021/04/25 01:54:58;;;;;;;4.00;1.60;;;20.20;28.90;;;;;;5096462;28;20039;-66
2021/04/25 01:57:24;;;;;;;4.78;1.75;;;20.20;28.90;;;;;;5096959;28;20467;-67
2021/04/25 01:59:49;;;;;;;4.25;1.58;;;20.20;28.90;;;;;;5097035;28;20111;-67
2021/04/25 02:02:15;;;;;;;4.18;1.70;;;20.20;28.90;;;;;;5096332;28;20022;-66
2021/04/25 02:04:41;;;;;;;2.88;1.45;;;20.20;28.90;;;;;;5096680;28;20417;-66
2021/04/25 02:07:06;;;;;;;3.85;1.70;;;20.20;28.90;;;;;;5096536;28;20028;-67
2021/04/25 02:09:32;;;;;;;3.67;1.80;;;20.20;28.90;;;;;;5096384;28;20475;-67
2021/04/25 02:11:58;;;;;;;3.80;1.75;;;20.20;28.90;;;;;;5096148;28;20102;-66
2021/04/25 02:14:24;;;;;;;3.38;1.60;;;20.20;28.90;;;;;;5096226;28;20042;-67
2021/04/25 02:16:49;;;;;;;4.32;1.58;;;20.20;28.90;;;;;;5096356;28;20024;-68
2021/04/25 02:19:15;;;;;;;3.67;1.38;;;20.20;28.90;;;;;;5096246;28;20437;-67
2021/04/25 02:21:40;;;;;;;3.75;1.30;;;20.10;28.90;;;;;;5096076;28;20543;-66
2021/04/25 02:24:06;;;;;;;3.97;1.77;;;20.10;28.90;;;;;;5096690;28;20035;-66
2021/04/25 02:26:32;;;;;;;3.38;1.75;;;20.20;29.00;;;;;;5096202;28;20111;-67
2021/04/25 02:28:57;;;;;;;3.58;1.45;;;20.20;29.00;;;;;;5095774;28;20475;-66
2021/04/25 02:31:23;;;;;;;3.85;1.63;;;20.10;29.00;;;;;;5095591;28;20016;-66
2021/04/25 02:33:48;;;;;;;5.07;1.80;;;20.10;29.00;;;;;;5095410;28;20032;-68
2021/04/25 02:36:14;;;;;;;3.78;1.60;;;20.10;29.00;;;;;;5095755;28;20053;-67
2021/04/25 02:38:39;;;;;;;4.07;1.70;;;20.10;28.90;;;;;;5095805;28;20046;-67
2021/04/25 02:41:05;;;;;;;3.80;1.58;;;20.10;29.00;;;;;;5095667;28;20490;-67
2021/04/25 02:43:30;;;;;;;4.80;1.70;;;20.10;29.00;;;;;;5095603;28;20036;-67
2021/04/25 02:45:56;;;;;;;6.25;1.80;;;20.10;29.00;;;;;;5095863;28;20024;-67
2021/04/25 02:48:22;;;;;;;4.35;1.73;;;20.10;29.00;;;;;;5095462;28;20034;-66
2021/04/25 02:50:47;;;;;;;3.65;1.65;;;20.10;29.00;;;;;;5095517;28;20407;-67
2021/04/25 02:53:13;;;;;;;3.35;1.70;;;20.10;29.00;;;;;;5096115;28;20422;-67
2021/04/25 02:55:39;;;;;;;5.03;1.88;;;20.10;29.00;;;;;;5095375;28;20016;-66
2021/04/25 02:58:05;;;;;;;5.00;1.70;;;20.10;29.00;;;;;;5095017;28;20037;-66
2021/04/25 03:00:31;;;;;;;3.78;1.65;;;20.10;29.00;;;;;;5095380;28;20024;-67
2021/04/25 03:02:58;;;;;;;4.72;1.77;;;20.10;29.00;;;;;;5095494;28;20521;-66
2021/04/25 03:05:24;;;;;;;5.10;2.13;;;20.10;29.10;;;;;;5095172;28;20040;-66
2021/04/25 03:07:50;;;;;;;5.63;1.90;;;20.10;29.10;;;;;;5095469;28;20119;-66
2021/04/25 03:10:16;;;;;;;3.72;1.67;;;20.10;29.10;;;;;;5093812;28;20068;-66
2021/04/25 03:12:43;;;;;;;6.93;2.05;;;20.10;29.00;;;;;;5095038;28;20024;-67
2021/04/25 03:15:10;;;;;;;6.25;2.22;;;20.10;29.00;;;;;;5094934;28;20028;-65
2021/04/25 03:17:36;;;;;;;3.53;1.73;;;20.00;29.00;;;;;;5094660;28;20024;-66
2021/04/25 03:20:05;;;;;;;3.63;1.98;;;20.00;29.00;;;;;;5094756;28;20375;-67
2021/04/25 03:22:31;;;;;;;4.40;1.80;;;20.10;29.00;;;;;;5094710;28;20047;-66
2021/04/25 03:24:57;;;;;;;5.57;1.88;;;20.00;29.10;;;;;;5095214;28;20036;-67
2021/04/25 03:27:23;;;;;;;5.90;2.25;;;20.10;29.00;;;;;;5094965;28;20016;-66
2021/04/25 03:29:48;;;;;;;4.43;1.70;;;20.00;29.00;;;;;;5094827;28;20024;-66
2021/04/25 03:32:14;;;;;;;4.40;1.90;;;20.00;29.10;;;;;;5095031;28;20020;-66
2021/04/25 03:34:39;;;;;;;4.65;2.00;;;20.00;29.10;;;;;;5094788;28;20039;-66
2021/04/25 03:37:05;;;;;;;4.72;1.88;;;20.00;29.10;;;;;;5094671;28;20024;-66
2021/04/25 03:39:31;;;;;;;4.05;2.00;;;20.00;29.00;;;;;;5094516;28;20110;-66
2021/04/25 03:41:56;;;;;;;5.65;1.95;;;20.00;29.10;;;;;;5094730;28;20028;-67
2021/04/25 03:44:22;;;;;;;4.30;1.83;;;20.00;29.00;;;;;;5093915;28;20458;-67
2021/04/25 03:46:47;;;;;;;5.40;2.10;;;20.00;29.00;;;;;;5094490;28;20032;-66
2021/04/25 03:49:19;;;;;;;5.70;2.00;;;20.00;29.00;;;;;;5094442;28;20099;-67
2021/04/25 03:51:45;;;;;;;4.80;1.80;;;20.00;29.10;;;;;;5094255;28;20459;-66
2021/04/25 03:54:11;;;;;;;4.05;1.90;;;20.00;29.10;;;;;;5094703;28;20028;-66
2021/04/25 03:56:36;;;;;;;4.65;2.00;;;20.00;29.00;;;;;;5093964;28;20027;-68
2021/04/25 03:59:03;;;;;;;4.00;1.80;;;20.00;29.00;;;;;;5094013;28;20020;-66
2021/04/25 04:01:28;;;;;;;4.10;1.90;;;20.00;29.00;;;;;;5093981;28;20081;-66
2021/04/25 04:03:54;;;;;;;3.90;1.80;;;20.00;29.00;;;;;;5092592;28;20560;-67
2021/04/25 04:06:19;;;;;;;4.10;1.92;;;20.00;29.10;;;;;;5094411;28;20464;-66
2021/04/25 04:08:45;;;;;;;6.45;2.30;;;20.00;29.10;;;;;;5094142;28;20475;-67
2021/04/25 04:11:11;;;;;;;4.65;1.85;;;20.00;29.10;;;;;;5094116;28;20028;-66
2021/04/25 04:13:36;;;;;;;4.30;2.05;;;20.00;29.00;;;;;;5094193;28;20020;-66
2021/04/25 04:16:02;;;;;;;4.18;1.70;;;20.10;29.00;;;;;;5092558;28;20069;-66
2021/04/25 04:18:27;;;;;;;4.15;1.63;;;20.00;29.00;;;;;;5093922;28;20024;-67
2021/04/25 04:20:53;;;;;;;6.38;2.13;;;20.10;29.00;;;;;;5093713;28;20024;-66
2021/04/25 04:23:18;;;;;;;3.20;1.70;;;20.10;28.90;;;;;;5094101;28;20042;-67
2021/04/25 04:25:44;;;;;;;3.97;1.98;;;20.10;29.00;;;;;;5094062;28;20074;-67
2021/04/25 04:28:09;;;;;;;5.53;1.90;;;20.10;28.90;;;;;;5093573;28;20447;-66
2021/04/25 04:30:35;;;;;;;3.92;1.65;;;20.10;28.90;;;;;;5093849;28;20016;-67
2021/04/25 04:33:01;;;;;;;4.53;1.85;;;20.20;28.90;;;;;;5093875;28;20380;-67
2021/04/25 04:35:27;;;;;;;4.70;1.60;;;20.20;28.90;;;;;;5093702;28;20024;-67
2021/04/25 04:37:54;;;;;;;6.45;2.03;;;20.20;28.90;;;;;;5093756;28;20520;-66
2021/04/25 04:40:19;;;;;;;4.57;1.92;;;20.20;28.90;;;;;;5093383;28;20027;-67
2021/04/25 04:42:45;;;;;;;3.72;1.80;;;20.20;28.90;;;;;;5093570;28;20383;-66
2021/04/25 04:45:13;;;;;;;4.70;1.75;;;20.30;28.80;;;;;;5093522;28;20034;-66
2021/04/25 04:47:43;;;;;;;5.47;1.88;;;20.30;28.80;;;;;;5093528;28;20384;-66
2021/04/25 04:50:09;;;;;;;3.78;1.50;;;20.30;28.80;;;;;;5093695;28;20028;-67
2021/04/25 04:52:35;;;;;;;4.78;1.63;;;20.30;28.80;;;;;;5093620;28;20494;-66
2021/04/25 04:55:00;;;;;;;4.05;1.65;;;20.30;28.80;;;;;;5093961;28;20020;-67
2021/04/25 04:57:26;;;;;;;4.22;1.73;;;20.30;28.80;;;;;;5097737;28;20085;-66
2021/04/25 04:59:51;;;;;;;2.78;1.65;;;20.40;28.80;;;;;;5097791;28;20517;-66
2021/04/25 05:02:17;;;;;;;4.15;1.90;;;20.40;28.80;;;;;;5097207;28;20028;-66
2021/04/25 05:04:42;;;;;;;5.00;2.17;;;20.40;28.80;;;;;;5097322;28;20032;-66
2021/04/25 05:07:08;;;;;;;4.63;1.95;;;20.40;28.80;;;;;;5097465;28;20016;-66
2021/04/25 05:09:33;;;;;;;4.63;1.67;;;20.40;28.80;;;;;;5097414;28;20035;-66
2021/04/25 05:11:59;;;;;;;6.05;1.92;;;20.40;28.80;;;;;;5097693;28;20024;-66
2021/04/25 05:14:25;;;;;;;4.03;1.80;;;20.40;28.80;;;;;;5097545;28;20380;-66
2021/04/25 05:16:50;;;;;;;4.57;1.92;;;20.40;28.80;;;;;;5097139;28;20388;-66
2021/04/25 05:19:16;;;;;;;3.65;1.67;;;20.40;28.80;;;;;;5097420;28;20375;-66
2021/04/25 05:21:42;;;;;;;3.85;1.55;;;20.40;28.80;;;;;;5095948;28;20498;-66
2021/04/25 05:24:09;;;;;;;2.65;1.48;;;20.40;28.80;;;;;;5097694;28;20127;-67
2021/04/25 05:26:34;;;;;;;6.43;1.92;;;20.50;28.80;;;;;;5097359;28;20101;-66
2021/04/25 05:29:00;;;;;;;3.55;1.60;;;20.40;28.70;;;;;;5097438;28;20028;-66
2021/04/25 05:31:25;;;;;;;4.70;1.88;;;20.40;28.80;;;;;;5096959;28;20027;-66
2021/04/25 05:33:51;;;;;;;4.68;1.80;;;20.50;28.70;;;;;;5096800;28;20039;-66
2021/04/25 05:36:16;;;;;;;5.05;1.60;;;20.50;28.70;;;;;;5096937;28;20440;-66
2021/04/25 05:38:42;;;;;;;3.45;1.50;;;20.50;28.80;;;;;;5096935;28;20031;-66
2021/04/25 05:41:08;;;;;;;4.13;1.90;;;20.50;28.70;;;;;;5096823;28;20016;-66
2021/04/25 05:43:33;;;;;;;4.65;1.90;;;20.50;28.70;;;;;;5096868;28;20560;-66
2021/04/25 05:45:59;;;;;;;4.75;1.65;;;20.50;28.80;;;;;;5096615;28;20091;-66
2021/04/25 05:48:24;;;;;;;4.20;2.00;;;20.50;28.80;;;;;;5096733;28;20032;-66
2021/04/25 05:50:50;;;;;;;5.53;1.80;;;20.50;28.70;;;;;;5096459;28;20063;-66
2021/04/25 05:53:15;;;;;;;4.85;2.05;;;20.50;28.70;;;;;;5096580;28;20032;-66
2021/04/25 05:55:42;;;;;;;3.55;1.73;;;20.50;28.70;;;;;;5096438;28;20023;-66
2021/04/25 05:58:08;;;;;;;4.63;2.17;;;20.50;28.70;;;;;;5096999;28;20024;-66
2021/04/25 06:00:35;;;;;;;4.43;1.73;;;20.50;28.70;;;;;;5096167;28;20024;-66
2021/04/25 06:03:00;;;;;;;7.15;1.77;;;20.50;28.70;;;;;;5096757;28;20032;-66
2021/04/25 06:05:27;;;;;;;6.15;2.20;;;20.50;28.60;;;;;;5096363;28;20016;-66
2021/04/25 06:07:53;;;;;;;6.00;1.83;;;20.50;28.70;;;;;;5095357;28;20085;-66
2021/04/25 06:10:19;;;;;;;5.28;1.85;;;20.50;28.70;;;;;;5096177;28;20032;-66
2021/04/25 06:12:48;;;;;;;3.78;1.77;;;20.50;28.60;;;;;;5096041;28;20020;-67
2021/04/25 06:15:14;;;;;;;5.00;1.88;;;20.50;28.60;;;;;;5095958;28;20028;-67
2021/04/25 06:17:40;;;;;;;3.95;1.60;;;20.50;28.60;;;;;;5095994;28;20095;-67
2021/04/25 06:20:06;;;;;;;4.05;1.63;;;20.50;28.60;;;;;;5095952;28;20099;-67
2021/04/25 06:22:32;;;;;;;4.03;1.65;;;20.50;28.70;;;;;;5095834;28;20464;-67
2021/04/25 06:24:58;;;;;;;4.65;1.90;;;20.50;28.50;;;;;;5095772;28;20107;-66
2021/04/25 06:27:25;;;;;;;4.82;1.90;;;20.50;28.60;;;;;;5095805;28;20478;-66
2021/04/25 06:29:52;;;;;;;3.30;1.55;;;20.50;28.50;;;;;;5095668;28;20099;-66
2021/04/25 06:32:18;;;;;;;4.53;1.85;;;20.50;28.50;;;;;;5096110;28;20028;-67
2021/04/25 06:34:44;;;;;;;3.92;1.67;;;20.50;28.50;;;;;;5095648;28;20120;-66
2021/04/25 06:37:10;;;;;;;3.22;1.30;;;20.50;28.50;;;;;;5095719;28;20016;-66
2021/04/25 06:39:35;;;;;;;4.90;1.73;;;20.50;28.50;;;;;;5095718;28;20035;-66
2021/04/25 06:42:01;;;;;;;3.55;1.40;;;20.50;28.50;;;;;;5094071;28;20016;-67
2021/04/25 06:44:27;;;;;;;5.32;1.98;;;20.50;28.50;;;;;;5095099;28;20067;-67
2021/04/25 06:46:53;;;;;;;4.57;1.77;;;20.50;28.50;;;;;;5095567;28;20099;-68
2021/04/25 06:49:18;;;;;;;3.95;1.60;;;20.50;28.40;;;;;;5095679;28;20325;-67
2021/04/25 06:51:44;;;;;;;3.53;1.27;;;20.50;28.40;;;;;;5095203;28;20088;-67
2021/04/25 06:54:09;;;;;;;3.38;1.60;;;20.60;28.40;;;;;;5095091;28;20133;-67
2021/04/25 06:56:37;;;;;;;2.60;1.30;;;20.50;28.40;;;;;;5094972;28;20074;-67
2021/04/25 06:59:03;;;;;;;4.30;1.40;;;20.60;28.40;;;;;;5095347;28;20031;-67
2021/04/25 07:01:29;;;;;;;5.30;2.08;;;20.50;28.40;;;;;;5095273;28;20020;-67
2021/04/25 07:03:54;;;;;;;3.70;1.75;;;20.50;28.40;;;;;;5094809;28;20106;-67
2021/04/25 07:06:20;;;;;;;4.53;1.77;;;20.50;28.40;;;;;;5095030;28;20375;-67
2021/04/25 07:08:46;;;;;;;4.95;1.92;;;20.50;28.40;;;;;;5094954;28;20455;-67
2021/04/25 07:11:11;;;;;;;5.00;1.60;;;20.50;28.30;;;;;;5093676;28;20472;-67
2021/04/25 07:13:37;;;;;;;3.50;1.52;;;20.50;28.30;;;;;;5095067;28;20024;-67
2021/04/25 07:16:03;;;;;;;3.80;1.60;;;20.60;28.40;;;;;;5095090;28;20095;-67
2021/04/25 07:18:29;;;;;;;4.28;1.65;;;20.50;28.40;;;;;;5094642;28;20087;-66
2021/04/25 07:20:55;;;;;;;4.03;1.60;;;20.50;28.40;;;;;;5094309;28;20024;-66
2021/04/25 07:23:22;;;;;;;5.10;1.40;;;20.60;28.30;;;;;;5094556;28;20028;-67
2021/04/25 07:25:48;;;;;;;4.32;1.60;;;20.60;28.30;;;;;;5094435;28;20020;-67
2021/04/25 07:28:13;;;;;;;6.10;1.50;;;20.60;28.30;;;;;;5094250;28;20038;-67
2021/04/25 07:30:39;;;;;;;4.55;1.85;;;20.60;28.20;;;;;;5094534;28;20100;-67
2021/04/25 07:33:05;;;;;;;4.15;1.40;;;20.60;28.30;;;;;;5094580;28;20063;-68
2021/04/25 07:35:30;;;;;;;6.40;1.77;;;20.60;28.20;;;;;;5094594;28;20028;-68
2021/04/25 07:37:56;;;;;;;4.25;1.40;;;20.60;28.20;;;;;;5094678;28;20016;-67
2021/04/25 07:40:21;;;;;;;4.35;1.80;;;20.60;28.30;;;;;;5094739;28;20542;-68
2021/04/25 07:42:47;;;;;;;4.13;1.30;;;20.60;28.20;;;;;;5094686;28;20043;-67
2021/04/25 07:45:13;;;;;;;5.47;1.98;;;20.60;28.20;;;;;;5094042;28;20032;-66
2021/04/25 07:47:43;;;;;;;4.82;1.40;;;20.60;28.20;;;;;;5094256;28;20020;-67
2021/04/25 07:50:11;;;;;;;3.33;1.42;;;20.60;28.10;;;;;;5094344;28;20024;-66
2021/04/25 07:52:37;;;;;;;3.28;1.30;;;20.60;28.20;;;;;;5094155;28;20166;-66
2021/04/25 07:55:05;;;;;;;4.13;1.60;;;20.60;28.10;;;;;;5094152;28;20051;-66
2021/04/25 07:57:30;;;;;;;3.67;1.40;;;20.60;28.20;;;;;;5094438;28;20069;-66
2021/04/25 07:59:56;;;;;;;3.50;1.40;;;20.60;28.10;;;;;;5094324;28;20429;-66
2021/04/25 08:02:22;;;;;;;4.30;1.65;;;20.50;28.20;;;;;;5094126;28;20013;-66
2021/04/25 08:04:52;;;;;;;3.28;1.55;;;20.60;28.20;;;;;;5093766;28;20077;-68
2021/04/25 08:07:17;;;;;;;4.13;1.58;;;20.60;28.20;;;;;;5093891;28;20016;-67
2021/04/25 08:09:43;;;;;;;4.57;1.20;;;20.60;28.10;;;;;;5093917;28;20486;-67
2021/04/25 08:12:10;;;;;;;3.33;1.38;;;20.80;28.00;;;;;;5094204;28;20099;-67
2021/04/25 08:14:36;;;;;;;4.10;1.40;;;20.70;28.00;;;;;;5093867;28;20016;-67
2021/04/25 08:17:01;;;;;;;3.95;1.40;;;20.70;28.00;;;;;;5093980;28;20387;-67
2021/04/25 08:19:27;;;;;;;4.65;1.52;;;20.70;27.90;;;;;;5093576;28;20024;-67
2021/04/25 08:21:52;;;;;;;3.13;1.35;;;20.80;27.90;;;;;;5093730;28;20126;-67
2021/04/25 08:24:18;;;;;;;4.20;1.20;;;20.80;27.90;;;;;;5093591;28;20032;-67
2021/04/25 08:26:44;;;;;;;5.22;1.63;;;20.80;27.80;;;;;;5093639;28;20028;-67
2021/04/25 08:29:09;;;;;;;4.25;1.67;;;20.80;27.70;;;;;;5093616;28;20038;-67
2021/04/25 08:31:35;;;;;;;3.67;1.33;;;20.90;27.70;;;;;;5093068;28;20047;-67
2021/04/25 08:34:00;;;;;;;4.05;1.50;;;20.80;27.80;;;;;;5093512;28;20103;-67
2021/04/25 08:36:26;;;;;;;3.58;1.67;;;20.90;27.70;;;;;;5092325;28;20360;-67
2021/04/25 08:38:51;;;;;;;5.88;1.67;;;20.90;27.80;;;;;;5093816;28;20031;-67
2021/04/25 08:41:18;;;;;;;5.70;1.67;;;20.90;27.80;;;;;;5093508;28;20479;-67
2021/04/25 08:43:44;;;;;;;2.97;1.30;;;20.80;27.80;;;;;;5093376;28;20032;-66
2021/04/25 08:46:13;;;;;;;4.97;1.30;;;20.80;27.80;;;;;;5093584;28;20020;-67
2021/04/25 08:48:40;;;;;;;3.35;1.35;;;20.90;27.80;;;;;;5093566;28;20024;-66
2021/04/25 08:51:05;;;;;;;2.30;1.17;;;20.90;27.90;;;;;;5093622;28;20476;-66
2021/04/25 08:53:32;;;;;;;4.25;1.63;;;20.90;27.90;;;;;;5093525;28;20032;-66
2021/04/25 08:55:57;;;;;;;3.30;1.42;;;20.80;27.90;;;;;;5093508;28;20082;-67
2021/04/25 08:58:23;;;;;;;4.53;1.30;;;20.80;27.80;;;;;;5093556;28;20038;-66
2021/04/25 09:00:49;;;;;;;3.72;1.55;;;20.80;27.70;;;;;;5093479;28;20471;-67
2021/04/25 09:03:16;;;;;;;3.15;1.25;;;20.80;27.90;;;;;;5093458;28;20048;-67
2021/04/25 09:05:43;;;;;;;3.38;1.33;;;20.80;27.70;;;;;;5093556;28;20027;-67
2021/04/25 09:08:09;;;;;;;2.88;1.17;;;20.80;27.70;;;;;;5093433;28;20070;-67
2021/04/25 09:10:37;;;;;;;4.55;1.48;;;20.80;27.80;;;;;;5093335;28;20039;-67
2021/04/25 09:13:13;;;;;;;4.00;1.20;;;20.90;27.70;;;;;;5093215;28;20012;-67
2021/04/25 09:15:39;;;;;;;3.30;1.20;;;20.90;27.70;;;;;;5093573;28;20081;-67
2021/04/25 09:18:07;;;;;;;3.75;1.17;;;20.90;27.80;;;;;;5093259;28;20020;-66
2021/04/25 09:20:45;;;;;;;4.75;1.33;;;20.90;27.80;;;;;;5093222;28;20095;-67
2021/04/25 09:23:12;;;;;;;2.70;1.30;;;20.90;27.70;;;;;;5093320;28;20047;-67
2021/04/25 09:25:39;;;;;;;5.40;1.30;;;20.90;27.60;;;;;;5093680;28;20047;-67
2021/04/25 09:28:16;;;;;;;3.95;1.27;;;20.90;27.70;;;;;;5093456;28;20032;-67
2021/04/25 09:31:02;;;;;;;4.53;1.52;;;20.90;27.80;;;;;;5093964;28;20115;-66
2021/04/25 09:33:54;;;;;;;6.03;1.40;;;20.90;27.80;;;;;;5092885;28;20059;-66
2021/04/25 09:36:22;;;;;;;4.30;1.05;;;20.90;27.80;;;;;;5092751;28;20073;-66
2021/04/25 09:38:50;;;;;;;3.28;1.30;;;20.90;27.60;;;;;;5092416;28;20031;-67
2021/04/25 09:41:27;;;;;;;4.18;1.33;;;20.90;27.70;;;;;;5092202;28;20042;-66
2021/04/25 09:43:52;;;;;;;6.78;1.23;;;20.90;27.80;;;;;;5095749;28;20040;-67
2021/04/25 09:46:18;;;;;;;4.43;1.02;;;20.90;27.70;;;;;;5094709;28;20016;-67
2021/04/25 09:48:44;;;;;;;2.58;1.30;;;20.90;27.70;;;;;;5095943;28;20487;-67
2021/04/25 09:51:18;;;;;;;4.22;1.50;;;20.90;27.70;;;;;;5095880;28;20012;-66
2021/04/25 09:53:49;;;;;;;3.78;1.35;;;21.00;27.60;;;;;;5095937;28;20544;-67
2021/04/25 09:56:17;;;;;;;5.43;1.38;;;21.00;27.60;;;;;;5095777;28;20387;-67
2021/04/25 09:58:57;;;;;;;3.63;1.20;;;20.90;27.60;;;;;;5095686;28;20608;-67
2021/04/25 10:01:34;;;;;;;3.03;1.30;;;20.90;27.60;;;;;;5094320;28;20020;-67
2021/04/25 10:04:02;;;;;;;3.08;1.40;;;20.90;27.60;;;;;;5095702;28;20044;-67
2021/04/25 10:06:29;;;;;;;4.03;1.45;;;20.90;27.60;;;;;;5095561;28;20021;-68
2021/04/25 10:08:55;;;;;;;3.30;1.27;;;20.90;27.60;;;;;;5096056;28;20028;-67
2021/04/25 10:11:22;;;;;;;3.25;1.35;;;20.90;27.80;;;;;;5096309;28;20036;-67
2021/04/25 10:13:48;;;;;;;3.42;1.17;;;20.80;27.80;;;;;;5096197;28;20379;-67
2021/04/25 10:16:21;;;;;;;3.50;1.27;;;20.90;27.60;;;;;;5096001;28;20488;-67
2021/04/25 10:18:48;;;;;;;3.70;1.30;;;20.90;27.70;;;;;;5095865;28;20039;-67
2021/04/25 10:21:13;;;;;;;2.95;1.17;;;20.90;27.60;;;;;;5096467;28;20515;-67
2021/04/25 10:23:39;;;;;;;3.88;1.27;;;20.90;27.60;;;;;;5100398;28;20032;-66
2021/04/25 10:26:10;;;;;;;5.45;1.75;;;20.90;27.70;;;;;;5098997;28;20031;-67
2021/04/25 10:28:46;;;;;;;3.85;1.70;;;21.00;27.60;;;;;;5099939;28;20036;-66
2021/04/25 10:31:19;;;;;;;4.22;1.48;;;21.00;27.70;;;;;;5098244;28;20016;-66
2021/04/25 10:34:04;;;;;;;4.13;1.30;;;21.00;27.60;;;;;;5099680;28;20020;-66
2021/04/25 10:36:45;;;;;;;3.65;1.50;;;21.00;27.60;;;;;;5099069;28;20035;-66
2021/04/25 10:39:50;;;;;;;4.43;1.50;;;21.00;27.60;;;;;;5100821;28;20074;-68
2021/04/25 10:42:16;;;;;;;6.05;1.63;;;21.00;27.60;;;;;;5064143;28;20050;-66
2021/04/25 10:45:02;;;;;;;4.15;1.20;;;21.00;27.60;;;;;;5098958;28;20040;-66
2021/04/25 10:47:38;;;;;;;2.47;1.20;;;21.00;27.50;;;;;;5102791;28;20012;-67
2021/04/25 10:50:13;;;;;;;4.40;1.63;;;21.00;27.60;;;;;;5103842;28;20052;-67
2021/04/25 10:52:38;;;;;;;;;;;21.10;27.60;;;;;;5101692;28;20020;-67
2021/04/25 10:57:50;;;;;;;;;;;21.10;27.50;;;;;;5100627;28;20032;-67
2021/04/25 11:03:01;;;;;;;6.35;2.30;;;21.10;27.50;;;;;;5101381;28;20039;-68
2021/04/25 11:05:50;;;;;;;4.90;1.80;;;21.20;27.40;;;;;;5102920;28;20024;-67
2021/04/25 11:08:16;;;;;;;4.93;1.92;;;21.20;27.50;;;;;;5098710;28;20028;-67
2021/04/25 11:10:52;;;;;;;6.00;2.10;;;21.20;27.50;;;;;;5102985;28;20028;-67
2021/04/25 11:13:49;;;;;;;6.65;2.13;;;21.20;27.30;;;;;;5098796;28;20035;-68
2021/04/25 11:16:18;;;;;;;5.30;2.20;;;21.20;27.40;;;;;;5100005;28;20031;-65
2021/04/25 11:19:06;;;;;;;6.15;2.20;;;21.30;27.40;;;;;;5102890;28;20023;-66
2021/04/25 11:21:32;;;;;;;5.40;2.22;;;21.30;27.40;;;;;;5104159;28;20047;-66
2021/04/25 11:24:28;;;;;;;4.95;2.08;;;21.20;27.50;;;;;;5101781;28;20039;-67
2021/04/25 11:26:58;;;;;;;4.35;1.73;;;21.20;27.50;;;;;;5103855;28;20025;-67
2021/04/25 11:29:27;;;;;;;6.82;1.90;;;21.20;27.50;;;;;;5102928;28;20039;-67
2021/04/25 11:31:55;;;;;;;7.22;2.15;;;21.30;27.30;;;;;;5099732;28;20042;-67
2021/04/25 11:34:27;;;;;;;6.30;1.90;;;21.30;27.40;;;;;;5101186;28;20416;-67
2021/04/25 11:37:06;;;;;;;6.65;2.33;;;21.40;27.30;;;;;;5100122;28;20028;-68
2021/04/25 11:39:47;;;;;;;5.10;1.83;;;21.40;27.20;;;;;;5102702;28;20025;-67
2021/04/25 11:42:29;;;;;;;5.45;2.15;;;21.40;27.20;;;;;;5102847;28;20101;-67
2021/04/25 11:44:57;;;;;;;5.10;2.00;;;21.40;27.30;;;;;;5099607;28;20077;-67
2021/04/25 11:47:24;;;;;;;4.50;1.80;;;21.50;27.20;;;;;;5099885;28;20516;-67
2021/04/25 11:49:52;;;;;;;5.78;1.73;;;21.50;27.10;;;;;;5101179;28;20460;-67
2021/04/25 11:52:32;;;;;;;6.75;2.40;;;21.50;27.20;;;;;;5101295;28;20024;-67
2021/04/25 11:54:59;;;;;;;7.30;2.22;;;21.50;27.20;;;;;;5099295;28;20031;-68
2021/04/25 11:57:26;;;;;;;5.15;1.75;;;21.50;27.20;;;;;;5098492;28;20024;-67
2021/04/25 12:00:06;;;;;;;5.82;2.28;;;21.50;27.20;;;;;;5096320;28;20031;-67
2021/04/25 12:02:34;;;;;;;6.50;1.98;;;21.50;27.10;;;;;;5098761;28;20024;-67
2021/04/25 12:05:12;;;;;;;3.53;1.58;;;21.60;27.10;;;;;;5099659;28;20111;-68
2021/04/25 12:08:08;;;;;;;6.13;1.92;;;21.60;27.10;;;;;;5098861;28;20031;-67
2021/04/25 12:10:38;;;;;;;6.80;2.20;;;21.70;27.00;;;;;;5089598;28;20111;-67
2021/04/25 12:13:16;;;;;;;4.50;1.73;;;21.70;26.90;;;;;;5096270;28;20039;-67
2021/04/25 12:15:44;;;;;;;4.63;1.90;;;21.80;26.90;;;;;;5097753;28;20020;-69
2021/04/25 12:18:10;;;;;;;5.55;2.13;;;22.00;26.80;;;;;;5098487;28;20028;-67
2021/04/25 12:20:50;;;;;;;5.13;1.60;;;21.90;26.90;;;;;;5094619;28;20053;-68
2021/04/25 12:23:24;;;;;;;5.03;1.67;;;22.00;26.90;;;;;;5097073;28;20035;-67
2021/04/25 12:25:51;;;;;;;;;;;22.00;26.80;;;;;;5098425;28;20066;-67
2021/04/25 12:28:18;;;;;;;5.93;1.67;;;22.00;26.70;;;;;;5096229;28;19986;-67
2021/04/25 12:30:45;;;;;;;4.82;1.63;;;22.10;26.70;;;;;;5097904;28;20043;-67
2021/04/25 12:33:17;;;;;;;5.30;1.70;;;22.10;26.70;;;;;;5095321;28;20024;-67
2021/04/25 12:35:48;;;;;;;5.70;1.80;;;22.10;26.70;;;;;;5094954;28;20032;-67
2021/04/25 12:38:15;;;;;;;4.40;1.63;;;22.20;26.60;;;;;;5097853;28;20020;-67
2021/04/25 12:40:41;;;;;;;5.13;1.88;;;22.30;26.60;;;;;;5095475;28;20020;-67
2021/04/25 12:43:15;;;;;;;6.10;2.03;;;22.30;26.50;;;;;;5095950;28;20095;-67
2021/04/25 12:45:45;;;;;;;3.97;1.92;;;22.40;26.50;;;;;;5094340;28;20376;-67
2021/04/25 12:48:36;;;;;;;5.55;1.63;;;22.50;26.50;;;;;;5095116;28;20421;-67
2021/04/25 12:51:12;;;;;;;3.83;1.52;;;22.50;26.40;;;;;;5094189;28;20042;-66
2021/04/25 12:53:44;;;;;;;4.45;2.15;;;22.60;26.30;;;;;;5095043;28;20017;-67
2021/04/25 12:56:22;;;;;;;4.32;1.85;;;22.60;26.30;;;;;;5095093;28;20031;-66